Meteo Giornale » Osservazioni meteo Stati Uniti (USA) » Limon
ore: 20:55 - Osservazioni Meteo Limon
Lat. 39° 16' N Lon. 103° 40' W Alt. 1635 metri s.l.m.
19 °C
Poco Nuvoloso
Temp. 24 Ore
10 °C
29 °C
Nord
0 Km/h
Dew point 11 °C
Umidità 59 %
Visibilità 10 Km
Il sole sorge alle ore 06:22
Il sole tramonta alle ore 19:27
| Data e Ora | Cielo e Fenomeni | T °C | DP °C | Um. % | Pres. hPa | Vis. km | Vento km/h | |
|---|---|---|---|---|---|---|---|---|
| Oggi h: 20:55 | Poco Nuvoloso | 19 | 11 | 59 | 1020 | 10 | N 0 | |
| Oggi h: 19:55 | Sereno | 21 | 10 | 49 | 1020 | 10 | S/SE 16.7 | |
| Oggi h: 18:55 | Sereno | 24 | 9 | 38 | 1019 | 10 | SE 9.3 | |
| Oggi h: 17:55 | Molto Nuvoloso | 27 | 9 | 32 | 1020 | 10 | S 24 | |
| Oggi h: 16:55 | Sereno | 28 | 10 | 32 | 1020 | 10 | SE 14.8 | |
| Oggi h: 15:55 | Nuvoloso | 29 | 10 | 30 | 1020 | 10 | SE 16.7 | |
| Oggi h: 14:55 | Sereno | 29 | 11 | 32 | 1020 | 10 | E 11.1 | |
| Oggi h: 13:55 | Molto Nuvoloso | 28 | 9 | 30 | 1022 | 10 | N 0 | |
| Oggi h: 12:55 | Sereno | 29 | 9 | 28 | 1022 | 10 | N 5.5 | |
| Oggi h: 11:55 | Sereno | 28 | 8 | 28 | 1022 | 10 | NE 7.4 | |
| Oggi h: 10:55 | Sereno | 27 | 9 | 32 | 1022 | 10 | O/NO 11.1 | |
| Oggi h: 09:55 | Sereno | 26 | 8 | 31 | 1022 | 10 | N/NO 11.1 | |
| Oggi h: 08:55 | Sereno | 21 | 12 | 56 | 1022 | 10 | NO 7.4 | |
| Oggi h: 07:55 | Sereno | 16 | 12 | 77 | 1022 | 10 | N 5.5 | |
| Oggi h: 06:55 | Sereno | 13 | 11 | 87 | 1021 | 10 | N 7.4 | |
| Oggi h: 05:55 | Sereno | 10 | 9 | 93 | 1021 | 10 | N 11.1 | |
| Oggi h: 04:55 | Sereno | 11 | 10 | 93 | 1021 | 10 | N 11.1 | |
| Oggi h: 03:55 | Sereno | 12 | 11 | 93 | 1021 | 10 | N 0 | |
| Oggi h: 02:55 | Sereno | 13 | 11 | 87 | 1020 | 10 | N/NE 7.4 | |
| Oggi h: 01:55 | Sereno | 14 | 12 | 87 | 1020 | 10 | N 5.5 | |
| Oggi h: 00:55 | Poco Nuvoloso | 17 | 12 | 72 | 1021 | 10 | N 5.5 | |
| Ieri h: 23:55 | Nuvoloso | 17 | 13 | 77 | 1022 | 10 | O/NO 18.5 | |
| Ieri h: 22:55 | Poco Nuvoloso | 17 | 13 | 77 | 1021 | 10 | N 5.5 | |
| Ieri h: 21:55 | Nuvoloso | 18 | 13 | 72 | 1021 | 10 | O 9.3 | |



